sensor_id;sensor_type;location;lat;lon;timestamp;pressure;altitude;pressure_sealevel;temperature;humidity
84022;BME280;74108;48.636;9.492;2024-03-23T00:54:00;97081.47;;;8.25;73.09
84022;BME280;74108;48.636;9.492;2024-03-23T00:56:26;97078.00;;;8.15;74.74
84022;BME280;74108;48.636;9.492;2024-03-23T00:58:51;97069.94;;;8.16;73.25
84022;BME280;74108;48.636;9.492;2024-03-23T01:01:16;97060.44;;;8.05;74.85
84022;BME280;74108;48.636;9.492;2024-03-23T01:03:42;97063.34;;;8.09;76.23
84022;BME280;74108;48.636;9.492;2024-03-23T01:06:07;97059.19;;;8.13;76.35
84022;BME280;74108;48.636;9.492;2024-03-23T01:08:33;97055.06;;;8.17;75.44
84022;BME280;74108;48.636;9.492;2024-03-23T01:10:59;97045.97;;;8.19;75.44
84022;BME280;74108;48.636;9.492;2024-03-23T01:13:25;97045.41;;;8.17;75.00
84022;BME280;74108;48.636;9.492;2024-03-23T01:15:51;97046.72;;;8.15;75.96
84022;BME280;74108;48.636;9.492;2024-03-23T01:18:18;97053.47;;;8.16;75.24
84022;BME280;74108;48.636;9.492;2024-03-23T01:20:44;97052.06;;;8.30;74.95
84022;BME280;74108;48.636;9.492;2024-03-23T01:23:09;97049.06;;;8.16;72.91
84022;BME280;74108;48.636;9.492;2024-03-23T01:25:35;97051.03;;;8.04;74.07
84022;BME280;74108;48.636;9.492;2024-03-23T01:28:00;97047.91;;;8.02;73.96
84022;BME280;74108;48.636;9.492;2024-03-23T01:30:25;97044.69;;;7.95;73.88
84022;BME280;74108;48.636;9.492;2024-03-23T01:32:51;97037.34;;;7.60;75.21
84022;BME280;74108;48.636;9.492;2024-03-23T01:35:16;97026.19;;;7.65;75.99
84022;BME280;74108;48.636;9.492;2024-03-23T01:37:41;97012.72;;;7.73;75.67
84022;BME280;74108;48.636;9.492;2024-03-23T01:40:07;97014.25;;;7.74;76.25
84022;BME280;74108;48.636;9.492;2024-03-23T01:42:34;97016.44;;;7.82;77.34
84022;BME280;74108;48.636;9.492;2024-03-23T01:44:59;97002.75;;;8.02;76.18
84022;BME280;74108;48.636;9.492;2024-03-23T01:47:25;97001.25;;;8.06;75.26
84022;BME280;74108;48.636;9.492;2024-03-23T01:49:50;97002.22;;;8.00;76.13
84022;BME280;74108;48.636;9.492;2024-03-23T01:52:17;97002.00;;;8.06;74.81
84022;BME280;74108;48.636;9.492;2024-03-23T01:54:42;96992.94;;;8.14;75.05
84022;BME280;74108;48.636;9.492;2024-03-23T01:57:08;96992.63;;;8.05;75.25
84022;BME280;74108;48.636;9.492;2024-03-23T01:59:34;96981.47;;;8.15;74.50
84022;BME280;74108;48.636;9.492;2024-03-23T02:01:59;96985.59;;;8.11;75.45
84022;BME280;74108;48.636;9.492;2024-03-23T02:04:24;96977.84;;;8.21;74.98
84022;BME280;74108;48.636;9.492;2024-03-23T02:06:50;96976.38;;;8.30;74.47
84022;BME280;74108;48.636;9.492;2024-03-23T02:09:15;96978.72;;;8.31;75.13
84022;BME280;74108;48.636;9.492;2024-03-23T02:11:41;96975.59;;;8.29;75.95
84022;BME280;74108;48.636;9.492;2024-03-23T02:14:06;96976.44;;;8.40;74.98
84022;BME280;74108;48.636;9.492;2024-03-23T02:16:33;96971.25;;;8.50;74.98
84022;BME280;74108;48.636;9.492;2024-03-23T02:18:58;96967.13;;;8.54;75.29
84022;BME280;74108;48.636;9.492;2024-03-23T02:21:23;96967.09;;;8.49;74.72
84022;BME280;74108;48.636;9.492;2024-03-23T02:23:49;96962.38;;;8.46;75.00
84022;BME280;74108;48.636;9.492;2024-03-23T02:26:14;96956.81;;;8.32;75.11
84022;BME280;74108;48.636;9.492;2024-03-23T02:28:40;96950.66;;;8.12;75.71
84022;BME280;74108;48.636;9.492;2024-03-23T02:31:05;96936.81;;;8.11;76.12
84022;BME280;74108;48.636;9.492;2024-03-23T02:33:31;96938.16;;;8.14;76.18
84022;BME280;74108;48.636;9.492;2024-03-23T02:35:57;96949.41;;;8.24;76.07
84022;BME280;74108;48.636;9.492;2024-03-23T02:38:23;96937.50;;;8.28;76.61
84022;BME280;74108;48.636;9.492;2024-03-23T02:40:48;96930.75;;;8.37;75.69
84022;BME280;74108;48.636;9.492;2024-03-23T02:43:13;96929.16;;;8.36;75.82
84022;BME280;74108;48.636;9.492;2024-03-23T02:45:39;96928.34;;;8.26;75.77
84022;BME280;74108;48.636;9.492;2024-03-23T02:48:04;96934.63;;;8.30;75.76
84022;BME280;74108;48.636;9.492;2024-03-23T02:50:30;96947.59;;;8.25;76.44
84022;BME280;74108;48.636;9.492;2024-03-23T02:52:55;96934.34;;;8.31;76.52
84022;BME280;74108;48.636;9.492;2024-03-23T02:55:21;96932.34;;;8.43;75.08
84022;BME280;74108;48.636;9.492;2024-03-23T02:57:47;96933.16;;;8.49;74.49
84022;BME280;74108;48.636;9.492;2024-03-23T03:00:12;96928.38;;;8.36;74.34
84022;BME280;74108;48.636;9.492;2024-03-23T03:02:38;96928.88;;;8.28;75.81
84022;BME280;74108;48.636;9.492;2024-03-23T03:05:05;96925.16;;;8.24;76.02
84022;BME280;74108;48.636;9.492;2024-03-23T03:07:31;96931.91;;;8.15;75.42
84022;BME280;74108;48.636;9.492;2024-03-23T03:09:57;96925.72;;;8.26;75.59
84022;BME280;74108;48.636;9.492;2024-03-23T03:12:22;96922.38;;;8.40;75.05
84022;BME280;74108;48.636;9.492;2024-03-23T03:14:48;96926.38;;;8.53;74.80
84022;BME280;74108;48.636;9.492;2024-03-23T03:17:13;96920.38;;;8.58;75.00
84022;BME280;74108;48.636;9.492;2024-03-23T03:19:40;96905.50;;;8.58;75.55
84022;BME280;74108;48.636;9.492;2024-03-23T03:22:05;96907.63;;;8.66;75.02
84022;BME280;74108;48.636;9.492;2024-03-23T03:24:30;96914.63;;;8.56;75.83
84022;BME280;74108;48.636;9.492;2024-03-23T03:26:56;96899.28;;;8.69;75.36
84022;BME280;74108;48.636;9.492;2024-03-23T03:29:22;96898.00;;;8.72;75.47
84022;BME280;74108;48.636;9.492;2024-03-23T03:31:48;96899.75;;;8.61;75.50
84022;BME280;74108;48.636;9.492;2024-03-23T03:34:15;96899.00;;;8.61;75.27
84022;BME280;74108;48.636;9.492;2024-03-23T03:36:41;96900.31;;;8.68;75.86
84022;BME280;74108;48.636;9.492;2024-03-23T03:39:07;96894.91;;;8.90;75.34
84022;BME280;74108;48.636;9.492;2024-03-23T03:41:32;96902.25;;;9.08;74.87
84022;BME280;74108;48.636;9.492;2024-03-23T03:43:58;96901.47;;;9.12;75.22
84022;BME280;74108;48.636;9.492;2024-03-23T03:46:28;96899.41;;;9.25;74.43
84022;BME280;74108;48.636;9.492;2024-03-23T03:48:54;96897.53;;;9.10;74.42
84022;BME280;74108;48.636;9.492;2024-03-23T03:51:19;96901.75;;;9.11;74.47
84022;BME280;74108;48.636;9.492;2024-03-23T03:53:45;96895.72;;;9.05;74.79
84022;BME280;74108;48.636;9.492;2024-03-23T03:56:10;96886.31;;;8.99;74.56
84022;BME280;74108;48.636;9.492;2024-03-23T03:58:36;96892.78;;;8.82;75.47
84022;BME280;74108;48.636;9.492;2024-03-23T04:01:01;96886.00;;;8.86;74.93
84022;BME280;74108;48.636;9.492;2024-03-23T04:03:26;96884.41;;;8.80;75.51
84022;BME280;74108;48.636;9.492;2024-03-23T04:05:52;96867.16;;;8.69;74.73
84022;BME280;74108;48.636;9.492;2024-03-23T04:08:18;96855.16;;;8.73;75.70
84022;BME280;74108;48.636;9.492;2024-03-23T04:10:44;96847.59;;;8.81;74.98
84022;BME280;74108;48.636;9.492;2024-03-23T04:13:10;96842.88;;;8.78;74.87
84022;BME280;74108;48.636;9.492;2024-03-23T04:15:36;96828.53;;;8.81;75.46
84022;BME280;74108;48.636;9.492;2024-03-23T04:18:02;96829.28;;;8.71;76.00
84022;BME280;74108;48.636;9.492;2024-03-23T04:20:27;96808.91;;;8.68;76.00
84022;BME280;74108;48.636;9.492;2024-03-23T04:22:53;96814.91;;;8.54;76.62
84022;BME280;74108;48.636;9.492;2024-03-23T04:25:19;96806.00;;;8.55;75.99
84022;BME280;74108;48.636;9.492;2024-03-23T04:27:44;96795.03;;;8.53;74.77
84022;BME280;74108;48.636;9.492;2024-03-23T04:30:11;96792.44;;;8.53;75.33
84022;BME280;74108;48.636;9.492;2024-03-23T04:32:37;96778.56;;;8.37;75.34
84022;BME280;74108;48.636;9.492;2024-03-23T04:35:03;96769.44;;;8.34;76.52
84022;BME280;74108;48.636;9.492;2024-03-23T04:37:34;96767.88;;;8.38;77.70
84022;BME280;74108;48.636;9.492;2024-03-23T04:40:01;96754.81;;;8.38;76.75
84022;BME280;74108;48.636;9.492;2024-03-23T04:42:27;96744.19;;;8.70;79.99
84022;BME280;74108;48.636;9.492;2024-03-23T04:44:53;96737.59;;;9.28;79.68
84022;BME280;74108;48.636;9.492;2024-03-23T04:47:18;96735.69;;;9.64;77.67
84022;BME280;74108;48.636;9.492;2024-03-23T04:49:43;96733.41;;;10.11;76.95
84022;BME280;74108;48.636;9.492;2024-03-23T04:52:09;96735.19;;;10.65;76.04
84022;BME280;74108;48.636;9.492;2024-03-23T04:54:35;96726.22;;;11.04;73.18
84022;BME280;74108;48.636;9.492;2024-03-23T04:57:00;96731.13;;;11.40;71.96
84022;BME280;74108;48.636;9.492;2024-03-23T04:59:25;96727.25;;;11.84;69.14
84022;BME280;74108;48.636;9.492;2024-03-23T05:01:51;96720.56;;;12.16;68.63
84022;BME280;74108;48.636;9.492;2024-03-23T05:04:16;96719.22;;;12.55;66.87
84022;BME280;74108;48.636;9.492;2024-03-23T05:06:41;96706.81;;;12.93;65.26
84022;BME280;74108;48.636;9.492;2024-03-23T05:09:07;96696.84;;;13.09;64.76
84022;BME280;74108;48.636;9.492;2024-03-23T05:11:35;96688.38;;;13.25;64.28
84022;BME280;74108;48.636;9.492;2024-03-23T05:14:01;96691.50;;;13.41;63.83
84022;BME280;74108;48.636;9.492;2024-03-23T05:16:28;96707.88;;;13.52;63.70
84022;BME280;74108;48.636;9.492;2024-03-23T05:18:53;96710.81;;;13.77;62.80
84022;BME280;74108;48.636;9.492;2024-03-23T05:21:19;96778.53;;;13.90;61.99
84022;BME280;74108;48.636;9.492;2024-03-23T05:23:44;96769.00;;;13.35;63.07
84022;BME280;74108;48.636;9.492;2024-03-23T05:26:09;96769.25;;;13.01;65.46
84022;BME280;74108;48.636;9.492;2024-03-23T05:28:35;96776.97;;;12.60;67.64
84022;BME280;74108;48.636;9.492;2024-03-23T05:31:01;96785.94;;;12.17;70.35
84022;BME280;74108;48.636;9.492;2024-03-23T05:33:26;96800.53;;;12.05;71.89
84022;BME280;74108;48.636;9.492;2024-03-23T05:36:00;96797.66;;;12.06;72.76
84022;BME280;74108;48.636;9.492;2024-03-23T05:38:25;96826.34;;;11.74;76.55
84022;BME280;74108;48.636;9.492;2024-03-23T05:40:59;96829.19;;;11.49;78.12
84022;BME280;74108;48.636;9.492;2024-03-23T05:43:26;96829.81;;;11.64;78.65
84022;BME280;74108;48.636;9.492;2024-03-23T05:45:55;96827.31;;;11.49;79.72
84022;BME280;74108;48.636;9.492;2024-03-23T05:48:21;96829.94;;;11.49;79.49
84022;BME280;74108;48.636;9.492;2024-03-23T05:50:47;96839.94;;;11.47;80.55
84022;BME280;74108;48.636;9.492;2024-03-23T05:53:13;96859.13;;;11.43;80.27
84022;BME280;74108;48.636;9.492;2024-03-23T05:55:38;96880.72;;;11.29;81.33
84022;BME280;74108;48.636;9.492;2024-03-23T05:58:03;96905.16;;;11.25;82.17
84022;BME280;74108;48.636;9.492;2024-03-23T06:00:29;96918.25;;;11.30;82.48
84022;BME280;74108;48.636;9.492;2024-03-23T06:02:54;96916.78;;;11.14;82.85
84022;BME280;74108;48.636;9.492;2024-03-23T06:05:19;96931.72;;;11.08;83.54
84022;BME280;74108;48.636;9.492;2024-03-23T06:07:45;96933.59;;;11.03;83.27
84022;BME280;74108;48.636;9.492;2024-03-23T06:10:11;96947.50;;;10.98;83.73
84022;BME280;74108;48.636;9.492;2024-03-23T06:12:36;96940.75;;;10.87;83.99
84022;BME280;74108;48.636;9.492;2024-03-23T06:15:02;96956.75;;;10.91;84.16
84022;BME280;74108;48.636;9.492;2024-03-23T06:17:27;96957.56;;;10.81;84.24
84022;BME280;74108;48.636;9.492;2024-03-23T06:19:52;96961.22;;;10.80;84.61
84022;BME280;74108;48.636;9.492;2024-03-23T06:22:18;96964.59;;;10.91;84.06
84022;BME280;74108;48.636;9.492;2024-03-23T06:24:44;96969.06;;;10.85;83.88
84022;BME280;74108;48.636;9.492;2024-03-23T06:27:09;96977.47;;;10.82;85.18
84022;BME280;74108;48.636;9.492;2024-03-23T06:29:35;96982.69;;;10.87;84.49
84022;BME280;74108;48.636;9.492;2024-03-23T06:32:01;96964.72;;;10.55;81.89
84022;BME280;74108;48.636;9.492;2024-03-23T06:34:27;96991.94;;;10.59;81.97
84022;BME280;74108;48.636;9.492;2024-03-23T06:36:52;96999.84;;;10.49;79.93
84022;BME280;74108;48.636;9.492;2024-03-23T06:39:17;97001.91;;;10.57;79.34
84022;BME280;74108;48.636;9.492;2024-03-23T06:41:52;97001.41;;;10.50;79.67
84022;BME280;74108;48.636;9.492;2024-03-23T06:44:18;97001.69;;;10.44;78.75
84022;BME280;74108;48.636;9.492;2024-03-23T06:46:43;97012.72;;;10.36;78.09
84022;BME280;74108;48.636;9.492;2024-03-23T06:49:09;97016.59;;;10.38;78.08
84022;BME280;74108;48.636;9.492;2024-03-23T06:51:35;97008.78;;;10.28;78.86
84022;BME280;74108;48.636;9.492;2024-03-23T06:54:01;97017.66;;;10.27;79.42
84022;BME280;74108;48.636;9.492;2024-03-23T06:56:27;97023.69;;;10.33;78.51
84022;BME280;74108;48.636;9.492;2024-03-23T06:58:52;97023.69;;;10.33;79.07
84022;BME280;74108;48.636;9.492;2024-03-23T07:01:18;97041.25;;;10.47;79.07
84022;BME280;74108;48.636;9.492;2024-03-23T07:03:44;97046.47;;;10.47;78.35
84022;BME280;74108;48.636;9.492;2024-03-23T07:06:10;97055.09;;;10.53;78.56
84022;BME280;74108;48.636;9.492;2024-03-23T07:08:36;97058.00;;;10.46;78.33
84022;BME280;74108;48.636;9.492;2024-03-23T07:11:02;97060.34;;;10.48;80.02
84022;BME280;74108;48.636;9.492;2024-03-23T07:13:28;97051.94;;;10.61;78.63
84022;BME280;74108;48.636;9.492;2024-03-23T07:15:53;97037.53;;;10.64;79.04
84022;BME280;74108;48.636;9.492;2024-03-23T07:18:21;97031.75;;;10.72;78.44
84022;BME280;74108;48.636;9.492;2024-03-23T07:20:54;97045.41;;;10.64;79.14
84022;BME280;74108;48.636;9.492;2024-03-23T07:23:19;97049.84;;;10.53;78.93
84022;BME280;74108;48.636;9.492;2024-03-23T07:25:45;97049.34;;;10.56;77.31
84022;BME280;74108;48.636;9.492;2024-03-23T07:28:10;97056.16;;;10.47;75.57
84022;BME280;74108;48.636;9.492;2024-03-23T07:30:36;97054.59;;;10.36;75.39
84022;BME280;74108;48.636;9.492;2024-03-23T07:33:01;97057.19;;;10.41;75.59
84022;BME280;74108;48.636;9.492;2024-03-23T07:35:26;97076.31;;;10.41;75.00
84022;BME280;74108;48.636;9.492;2024-03-23T07:37:52;97079.72;;;10.47;74.56
84022;BME280;74108;48.636;9.492;2024-03-23T07:40:17;97092.56;;;10.48;75.78
84022;BME280;74108;48.636;9.492;2024-03-23T07:42:42;97107.22;;;10.70;75.84
84022;BME280;74108;48.636;9.492;2024-03-23T07:45:08;97119.53;;;10.44;76.66
84022;BME280;74108;48.636;9.492;2024-03-23T07:47:34;97110.38;;;10.56;73.51
84022;BME280;74108;48.636;9.492;2024-03-23T07:50:00;97116.13;;;10.58;76.10
84022;BME280;74108;48.636;9.492;2024-03-23T07:52:28;97113.75;;;10.57;74.42
84022;BME280;74108;48.636;9.492;2024-03-23T07:54:54;97117.97;;;10.58;75.24
84022;BME280;74108;48.636;9.492;2024-03-23T07:57:19;97116.41;;;10.42;74.73
84022;BME280;74108;48.636;9.492;2024-03-23T07:59:44;97132.09;;;10.37;74.38
84022;BME280;74108;48.636;9.492;2024-03-23T08:02:10;97141.03;;;10.36;73.47
84022;BME280;74108;48.636;9.492;2024-03-23T08:04:36;97139.72;;;10.58;73.66
84022;BME280;74108;48.636;9.492;2024-03-23T08:07:01;97141.78;;;10.67;74.42
84022;BME280;74108;48.636;9.492;2024-03-23T08:09:27;97155.69;;;10.67;74.30
84022;BME280;74108;48.636;9.492;2024-03-23T08:11:52;97160.66;;;10.79;72.45
84022;BME280;74108;48.636;9.492;2024-03-23T08:14:18;97161.19;;;10.76;74.11
84022;BME280;74108;48.636;9.492;2024-03-23T08:16:43;97166.44;;;10.66;72.59
84022;BME280;74108;48.636;9.492;2024-03-23T08:19:14;97159.06;;;10.83;73.03
84022;BME280;74108;48.636;9.492;2024-03-23T08:21:40;97168.25;;;10.80;72.10
84022;BME280;74108;48.636;9.492;2024-03-23T08:24:06;97182.41;;;10.99;72.31
84022;BME280;74108;48.636;9.492;2024-03-23T08:26:31;97176.31;;;11.19;71.14
84022;BME280;74108;48.636;9.492;2024-03-23T08:28:56;97187.59;;;11.19;71.24
84022;BME280;74108;48.636;9.492;2024-03-23T08:31:22;97208.09;;;10.77;72.18
84022;BME280;74108;48.636;9.492;2024-03-23T08:33:48;97227.19;;;10.57;73.62
84022;BME280;74108;48.636;9.492;2024-03-23T08:36:13;97227.69;;;10.34;73.38
84022;BME280;74108;48.636;9.492;2024-03-23T08:38:42;97247.13;;;10.74;71.18
84022;BME280;74108;48.636;9.492;2024-03-23T08:41:09;97236.38;;;11.10;70.27
84022;BME280;74108;48.636;9.492;2024-03-23T08:43:37;97227.97;;;11.44;69.94
84022;BME280;74108;48.636;9.492;2024-03-23T08:46:09;97228.66;;;11.89;67.85
84022;BME280;74108;48.636;9.492;2024-03-23T08:48:36;97241.16;;;12.08;66.97
84022;BME280;74108;48.636;9.492;2024-03-23T08:53:29;97273.63;;;11.33;66.40
84022;BME280;74108;48.636;9.492;2024-03-23T08:55:56;97286.22;;;11.15;66.50
84022;BME280;74108;48.636;9.492;2024-03-23T08:58:23;97298.81;;;11.08;66.09
84022;BME280;74108;48.636;9.492;2024-03-23T09:00:51;97305.88;;;11.13;65.34
84022;BME280;74108;48.636;9.492;2024-03-23T09:03:17;97303.50;;;10.86;63.55
84022;BME280;74108;48.636;9.492;2024-03-23T09:05:44;97317.13;;;10.88;62.69
84022;BME280;74108;48.636;9.492;2024-03-23T09:08:10;97319.25;;;10.86;63.00
84022;BME280;74108;48.636;9.492;2024-03-23T09:10:39;97317.91;;;10.94;64.89
84022;BME280;74108;48.636;9.492;2024-03-23T09:13:06;97315.00;;;10.70;64.21
84022;BME280;74108;48.636;9.492;2024-03-23T09:15:49;97327.81;;;10.62;64.16
84022;BME280;74108;48.636;9.492;2024-03-23T09:18:15;97321.19;;;10.39;64.61
84022;BME280;74108;48.636;9.492;2024-03-23T09:20:41;97331.50;;;10.76;63.13
84022;BME280;74108;48.636;9.492;2024-03-23T09:23:07;97331.28;;;10.92;61.38
84022;BME280;74108;48.636;9.492;2024-03-23T09:25:37;97324.25;;;11.23;58.96
84022;BME280;74108;48.636;9.492;2024-03-23T09:28:04;97335.25;;;11.25;58.60
84022;BME280;74108;48.636;9.492;2024-03-23T09:30:32;97328.44;;;11.24;58.11
84022;BME280;74108;48.636;9.492;2024-03-23T09:32:59;97341.81;;;11.02;57.75
84022;BME280;74108;48.636;9.492;2024-03-23T09:35:25;97344.44;;;11.22;57.69
84022;BME280;74108;48.636;9.492;2024-03-23T09:37:50;97341.00;;;11.17;57.74
84022;BME280;74108;48.636;9.492;2024-03-23T09:40:16;97338.41;;;11.07;56.16
84022;BME280;74108;48.636;9.492;2024-03-23T09:42:41;97343.09;;;10.90;55.83
84022;BME280;74108;48.636;9.492;2024-03-23T09:45:17;97346.47;;;10.85;58.09
84022;BME280;74108;48.636;9.492;2024-03-23T09:47:43;97349.13;;;10.90;59.21
84022;BME280;74108;48.636;9.492;2024-03-23T09:50:09;97343.88;;;10.90;59.46
84022;BME280;74108;48.636;9.492;2024-03-23T09:52:34;97339.72;;;11.04;59.82
84022;BME280;74108;48.636;9.492;2024-03-23T09:55:00;97326.59;;;11.80;56.66
84022;BME280;74108;48.636;9.492;2024-03-23T09:57:25;97323.31;;;12.28;56.13
84022;BME280;74108;48.636;9.492;2024-03-23T09:59:51;97307.69;;;12.52;53.48
84022;BME280;74108;48.636;9.492;2024-03-23T10:02:16;97329.94;;;12.69;54.55
84022;BME280;74108;48.636;9.492;2024-03-23T10:04:45;97322.88;;;13.04;52.79
84022;BME280;74108;48.636;9.492;2024-03-23T10:07:20;97330.75;;;13.48;50.88
84022;BME280;74108;48.636;9.492;2024-03-23T10:09:47;97324.31;;;13.30;50.59
84022;BME280;74108;48.636;9.492;2024-03-23T10:12:14;97327.75;;;12.87;50.91
84022;BME280;74108;48.636;9.492;2024-03-23T10:14:41;97324.56;;;13.28;48.84
84022;BME280;74108;48.636;9.492;2024-03-23T10:17:16;97319.13;;;13.20;47.86
84022;BME280;74108;48.636;9.492;2024-03-23T10:19:49;97310.50;;;13.14;46.96
84022;BME280;74108;48.636;9.492;2024-03-23T10:22:24;97314.16;;;12.69;47.66
84022;BME280;74108;48.636;9.492;2024-03-23T10:24:50;97304.91;;;12.33;48.79
84022;BME280;74108;48.636;9.492;2024-03-23T10:29:44;97320.59;;;12.43;48.68
84022;BME280;74108;48.636;9.492;2024-03-23T10:32:10;97313.59;;;12.78;48.34
84022;BME280;74108;48.636;9.492;2024-03-23T10:34:37;97307.78;;;12.81;48.70
84022;BME280;74108;48.636;9.492;2024-03-23T10:37:03;97322.59;;;13.10;48.00
84022;BME280;74108;48.636;9.492;2024-03-23T10:39:32;97328.13;;;12.65;47.87
84022;BME280;74108;48.636;9.492;2024-03-23T10:42:02;97321.88;;;13.00;48.00
84022;BME280;74108;48.636;9.492;2024-03-23T10:44:27;97310.09;;;13.31;47.16
84022;BME280;74108;48.636;9.492;2024-03-23T10:46:55;97309.97;;;13.98;46.78
84022;BME280;74108;48.636;9.492;2024-03-23T10:49:25;97312.44;;;14.98;45.82
84022;BME280;74108;48.636;9.492;2024-03-23T10:51:52;97290.06;;;15.60;44.38
84022;BME280;74108;48.636;9.492;2024-03-23T10:54:18;97295.44;;;14.67;43.76
84022;BME280;74108;48.636;9.492;2024-03-23T10:56:45;97290.78;;;13.41;45.69
84022;BME280;74108;48.636;9.492;2024-03-23T10:59:12;97305.97;;;13.20;47.60
84022;BME280;74108;48.636;9.492;2024-03-23T11:01:58;97301.47;;;12.38;47.70
84022;BME280;74108;48.636;9.492;2024-03-23T11:04:35;97302.16;;;11.89;51.02
84022;BME280;74108;48.636;9.492;2024-03-23T11:09:54;97307.41;;;11.89;50.13
84022;BME280;74108;48.636;9.492;2024-03-23T11:14:52;97321.59;;;11.63;49.93
84022;BME280;74108;48.636;9.492;2024-03-23T11:17:23;97331.31;;;11.38;50.33
84022;BME280;74108;48.636;9.492;2024-03-23T11:19:59;97363.56;;;10.98;56.80
84022;BME280;74108;48.636;9.492;2024-03-23T11:22:41;97414.16;;;9.31;71.59
84022;BME280;74108;48.636;9.492;2024-03-23T11:25:18;97432.47;;;8.39;75.45
84022;BME280;74108;48.636;9.492;2024-03-23T11:27:46;97457.47;;;7.86;79.69
84022;BME280;74108;48.636;9.492;2024-03-23T11:30:14;97467.59;;;7.65;80.00
84022;BME280;74108;48.636;9.492;2024-03-23T11:32:40;97465.09;;;7.42;81.08
84022;BME280;74108;48.636;9.492;2024-03-23T11:35:06;97447.44;;;7.61;81.47
84022;BME280;74108;48.636;9.492;2024-03-23T11:37:31;97414.38;;;8.00;81.05
84022;BME280;74108;48.636;9.492;2024-03-23T11:39:57;97418.06;;;8.37;79.00
84022;BME280;74108;48.636;9.492;2024-03-23T11:42:22;97444.25;;;8.42;77.61
84022;BME280;74108;48.636;9.492;2024-03-23T11:44:47;97455.91;;;8.56;79.24
84022;BME280;74108;48.636;9.492;2024-03-23T11:47:13;97451.44;;;8.52;74.32
84022;BME280;74108;48.636;9.492;2024-03-23T11:49:38;97459.56;;;8.55;75.53
84022;BME280;74108;48.636;9.492;2024-03-23T11:52:06;97453.34;;;8.39;73.34
84022;BME280;74108;48.636;9.492;2024-03-23T11:54:32;97458.50;;;8.34;76.49
84022;BME280;74108;48.636;9.492;2024-03-23T11:57:02;97459.66;;;8.43;75.55
84022;BME280;74108;48.636;9.492;2024-03-23T11:59:37;97456.03;;;8.44;74.59
84022;BME280;74108;48.636;9.492;2024-03-23T12:04:32;97456.47;;;8.58;75.44
84022;BME280;74108;48.636;9.492;2024-03-23T12:07:16;97461.88;;;8.73;77.57
84022;BME280;74108;48.636;9.492;2024-03-23T12:10:05;97452.56;;;9.04;75.81
84022;BME280;74108;48.636;9.492;2024-03-23T12:12:31;97451.69;;;9.47;75.79
84022;BME280;74108;48.636;9.492;2024-03-23T12:15:03;97455.31;;;9.72;73.48
84022;BME280;74108;48.636;9.492;2024-03-23T12:17:30;97447.56;;;9.51;71.41
84022;BME280;74108;48.636;9.492;2024-03-23T12:19:55;97436.28;;;9.24;71.93
84022;BME280;74108;48.636;9.492;2024-03-23T12:22:21;97438.16;;;9.23;71.90
84022;BME280;74108;48.636;9.492;2024-03-23T12:24:47;97437.69;;;9.04;70.21
84022;BME280;74108;48.636;9.492;2024-03-23T12:27:13;97435.25;;;8.98;70.92
84022;BME280;74108;48.636;9.492;2024-03-23T12:29:38;97430.44;;;9.11;71.51
84022;BME280;74108;48.636;9.492;2024-03-23T12:32:05;97428.72;;;9.22;70.44
84022;BME280;74108;48.636;9.492;2024-03-23T12:34:30;97420.31;;;9.20;69.84
84022;BME280;74108;48.636;9.492;2024-03-23T12:36:56;97416.28;;;9.34;69.59
84022;BME280;74108;48.636;9.492;2024-03-23T12:39:21;97413.25;;;9.47;69.46
84022;BME280;74108;48.636;9.492;2024-03-23T12:41:47;97419.06;;;9.54;70.89
84022;BME280;74108;48.636;9.492;2024-03-23T12:44:13;97418.84;;;9.61;68.94
84022;BME280;74108;48.636;9.492;2024-03-23T12:46:41;97420.97;;;9.64;67.63
84022;BME280;74108;48.636;9.492;2024-03-23T12:49:06;97407.53;;;9.50;65.92
84022;BME280;74108;48.636;9.492;2024-03-23T12:51:32;97409.94;;;9.25;66.65
84022;BME280;74108;48.636;9.492;2024-03-23T12:53:58;97407.25;;;9.20;63.89
84022;BME280;74108;48.636;9.492;2024-03-23T12:56:24;97400.63;;;9.12;65.98
84022;BME280;74108;48.636;9.492;2024-03-23T12:58:49;97395.03;;;8.99;66.68
84022;BME280;74108;48.636;9.492;2024-03-23T13:01:17;97410.34;;;8.90;65.84
84022;BME280;74108;48.636;9.492;2024-03-23T13:03:42;97410.69;;;9.26;65.75
84022;BME280;74108;48.636;9.492;2024-03-23T13:06:10;97411.91;;;9.71;65.63
84022;BME280;74108;48.636;9.492;2024-03-23T13:08:35;97401.31;;;9.93;64.89
84022;BME280;74108;48.636;9.492;2024-03-23T13:11:01;97403.00;;;9.72;64.76
84022;BME280;74108;48.636;9.492;2024-03-23T13:13:26;97401.78;;;9.48;64.06
84022;BME280;74108;48.636;9.492;2024-03-23T13:15:52;97400.72;;;9.49;64.86
84022;BME280;74108;48.636;9.492;2024-03-23T13:18:25;97382.50;;;9.59;64.28
84022;BME280;74108;48.636;9.492;2024-03-23T13:20:54;97376.69;;;9.21;63.80
84022;BME280;74108;48.636;9.492;2024-03-23T13:23:19;97370.34;;;9.16;64.62
84022;BME280;74108;48.636;9.492;2024-03-23T13:25:55;97375.94;;;9.25;67.07
84022;BME280;74108;48.636;9.492;2024-03-23T13:28:22;97366.34;;;9.36;66.41
84022;BME280;74108;48.636;9.492;2024-03-23T13:30:55;97371.81;;;9.66;67.32
84022;BME280;74108;48.636;9.492;2024-03-23T13:33:21;97360.63;;;9.75;65.92
84022;BME280;74108;48.636;9.492;2024-03-23T13:38:15;97357.72;;;9.67;65.47
84022;BME280;74108;48.636;9.492;2024-03-23T13:40:50;97361.00;;;9.52;64.76
84022;BME280;74108;48.636;9.492;2024-03-23T13:43:15;97363.31;;;9.49;70.45
84022;BME280;74108;48.636;9.492;2024-03-23T13:45:40;97367.28;;;9.56;70.65
84022;BME280;74108;48.636;9.492;2024-03-23T13:48:06;97352.88;;;9.54;68.07
84022;BME280;74108;48.636;9.492;2024-03-23T13:50:31;97333.75;;;9.16;67.05
84022;BME280;74108;48.636;9.492;2024-03-23T13:52:56;97339.66;;;9.34;68.17
84022;BME280;74108;48.636;9.492;2024-03-23T13:55:22;97322.97;;;9.40;70.20
84022;BME280;74108;48.636;9.492;2024-03-23T13:57:48;97330.00;;;9.34;68.44
84022;BME280;74108;48.636;9.492;2024-03-23T14:00:14;97321.41;;;9.39;67.45
84022;BME280;74108;48.636;9.492;2024-03-23T14:02:39;97313.69;;;9.59;65.27
84022;BME280;74108;48.636;9.492;2024-03-23T14:05:05;97310.63;;;9.67;65.06
84022;BME280;74108;48.636;9.492;2024-03-23T14:07:30;97312.91;;;9.58;65.07
84022;BME280;74108;48.636;9.492;2024-03-23T14:09:56;97307.22;;;9.66;63.87